sensor_id;sensor_type;location;lat;lon;timestamp;temperature;humidity
20147;DHT22;10234;50.856;15.716;2023-07-08T00:00:18;10.70;99.90
20147;DHT22;10234;50.856;15.716;2023-07-08T00:02:47;10.80;99.90
20147;DHT22;10234;50.856;15.716;2023-07-08T00:05:15;10.50;99.90
20147;DHT22;10234;50.856;15.716;2023-07-08T00:07:43;10.30;99.90
20147;DHT22;10234;50.856;15.716;2023-07-08T00:10:15;10.90;99.90
20147;DHT22;10234;50.856;15.716;2023-07-08T00:15:10;10.30;99.90
20147;DHT22;10234;50.856;15.716;2023-07-08T00:20:20;10.20;99.90
20147;DHT22;10234;50.856;15.716;2023-07-08T00:25:17;10.10;99.90
20147;DHT22;10234;50.856;15.716;2023-07-08T00:30:21;10.30;99.90
20147;DHT22;10234;50.856;15.716;2023-07-08T00:32:49;11.10;99.90
20147;DHT22;10234;50.856;15.716;2023-07-08T00:35:21;10.20;99.90
20147;DHT22;10234;50.856;15.716;2023-07-08T00:37:50;10.20;99.90
20147;DHT22;10234;50.856;15.716;2023-07-08T00:40:19;10.20;99.90
20147;DHT22;10234;50.856;15.716;2023-07-08T00:42:47;10.20;99.90
20147;DHT22;10234;50.856;15.716;2023-07-08T00:45:29;10.00;99.90
20147;DHT22;10234;50.856;15.716;2023-07-08T00:48:06;10.10;99.90
20147;DHT22;10234;50.856;15.716;2023-07-08T00:50:36;10.60;99.90
20147;DHT22;10234;50.856;15.716;2023-07-08T00:53:22;10.00;99.90
20147;DHT22;10234;50.856;15.716;2023-07-08T00:55:51;10.10;99.90
20147;DHT22;10234;50.856;15.716;2023-07-08T00:58:20;9.90;99.90
20147;DHT22;10234;50.856;15.716;2023-07-08T01:03:16;9.90;99.90
20147;DHT22;10234;50.856;15.716;2023-07-08T01:05:46;9.90;99.90
20147;DHT22;10234;50.856;15.716;2023-07-08T01:08:14;9.70;99.90
20147;DHT22;10234;50.856;15.716;2023-07-08T01:10:46;9.90;99.90
20147;DHT22;10234;50.856;15.716;2023-07-08T01:13:15;9.80;99.90
20147;DHT22;10234;50.856;15.716;2023-07-08T01:15:45;9.90;99.90
20147;DHT22;10234;50.856;15.716;2023-07-08T01:18:14;9.80;99.90
20147;DHT22;10234;50.856;15.716;2023-07-08T01:20:43;9.80;99.90
20147;DHT22;10234;50.856;15.716;2023-07-08T01:23:11;10.00;99.90
20147;DHT22;10234;50.856;15.716;2023-07-08T01:25:39;9.60;99.90
20147;DHT22;10234;50.856;15.716;2023-07-08T01:30:35;9.60;99.90
20147;DHT22;10234;50.856;15.716;2023-07-08T01:33:06;9.80;99.90
20147;DHT22;10234;50.856;15.716;2023-07-08T01:35:34;9.70;99.90
20147;DHT22;10234;50.856;15.716;2023-07-08T01:38:03;9.70;99.90
20147;DHT22;10234;50.856;15.716;2023-07-08T01:40:34;9.70;99.90
20147;DHT22;10234;50.856;15.716;2023-07-08T01:43:03;9.60;99.90
20147;DHT22;10234;50.856;15.716;2023-07-08T01:45:32;9.70;99.90
20147;DHT22;10234;50.856;15.716;2023-07-08T01:48:04;9.50;99.90
20147;DHT22;10234;50.856;15.716;2023-07-08T01:50:33;9.40;99.90
20147;DHT22;10234;50.856;15.716;2023-07-08T01:53:04;9.40;99.90
20147;DHT22;10234;50.856;15.716;2023-07-08T01:55:34;9.50;99.90
20147;DHT22;10234;50.856;15.716;2023-07-08T01:58:01;9.30;99.90
20147;DHT22;10234;50.856;15.716;2023-07-08T02:05:22;9.30;99.90
20147;DHT22;10234;50.856;15.716;2023-07-08T02:07:49;9.00;99.90
20147;DHT22;10234;50.856;15.716;2023-07-08T02:10:16;9.70;99.90
20147;DHT22;10234;50.856;15.716;2023-07-08T02:12:45;9.30;99.90
20147;DHT22;10234;50.856;15.716;2023-07-08T02:17:38;9.20;99.90
20147;DHT22;10234;50.856;15.716;2023-07-08T02:20:06;9.10;99.90
20147;DHT22;10234;50.856;15.716;2023-07-08T02:22:34;9.30;99.90
20147;DHT22;10234;50.856;15.716;2023-07-08T02:25:02;9.00;99.90
20147;DHT22;10234;50.856;15.716;2023-07-08T02:29:57;9.00;99.90
20147;DHT22;10234;50.856;15.716;2023-07-08T02:32:24;9.20;99.90
20147;DHT22;10234;50.856;15.716;2023-07-08T02:34:50;9.00;99.90
20147;DHT22;10234;50.856;15.716;2023-07-08T02:37:17;9.00;99.90
20147;DHT22;10234;50.856;15.716;2023-07-08T02:47:07;9.30;99.90
20147;DHT22;10234;50.856;15.716;2023-07-08T02:49:34;8.80;99.90
20147;DHT22;10234;50.856;15.716;2023-07-08T02:54:28;9.10;99.90
20147;DHT22;10234;50.856;15.716;2023-07-08T02:56:54;9.00;99.90
20147;DHT22;10234;50.856;15.716;2023-07-08T02:59:21;8.80;99.90
20147;DHT22;10234;50.856;15.716;2023-07-08T03:04:17;8.80;99.90
20147;DHT22;10234;50.856;15.716;2023-07-08T03:06:44;9.00;99.90
20147;DHT22;10234;50.856;15.716;2023-07-08T03:09:12;8.90;99.90
20147;DHT22;10234;50.856;15.716;2023-07-08T03:11:40;9.30;99.90
20147;DHT22;10234;50.856;15.716;2023-07-08T03:14:07;9.10;99.90
20147;DHT22;10234;50.856;15.716;2023-07-08T03:16:34;8.90;99.90
20147;DHT22;10234;50.856;15.716;2023-07-08T03:21:29;9.20;99.90
20147;DHT22;10234;50.856;15.716;2023-07-08T03:23:57;9.30;99.90
20147;DHT22;10234;50.856;15.716;2023-07-08T03:26:25;9.30;99.90
20147;DHT22;10234;50.856;15.716;2023-07-08T03:33:47;9.30;99.90
20147;DHT22;10234;50.856;15.716;2023-07-08T03:36:15;9.50;99.90
20147;DHT22;10234;50.856;15.716;2023-07-08T03:38:50;9.60;99.90
20147;DHT22;10234;50.856;15.716;2023-07-08T03:41:16;9.60;99.90
20147;DHT22;10234;50.856;15.716;2023-07-08T03:43:43;9.90;99.90
20147;DHT22;10234;50.856;15.716;2023-07-08T03:46:10;10.00;99.90
20147;DHT22;10234;50.856;15.716;2023-07-08T03:48:38;10.30;99.90
20147;DHT22;10234;50.856;15.716;2023-07-08T03:51:08;10.50;99.90
20147;DHT22;10234;50.856;15.716;2023-07-08T03:56:04;11.00;99.90
20147;DHT22;10234;50.856;15.716;2023-07-08T04:01:01;11.40;99.90
20147;DHT22;10234;50.856;15.716;2023-07-08T04:05:55;12.10;99.90
20147;DHT22;10234;50.856;15.716;2023-07-08T04:08:22;12.70;99.90
20147;DHT22;10234;50.856;15.716;2023-07-08T04:13:17;13.90;99.90
20147;DHT22;10234;50.856;15.716;2023-07-08T04:15:44;14.60;99.90
20147;DHT22;10234;50.856;15.716;2023-07-08T04:18:11;15.20;99.90
20147;DHT22;10234;50.856;15.716;2023-07-08T04:20:38;15.50;99.90
20147;DHT22;10234;50.856;15.716;2023-07-08T04:23:05;16.10;99.90
20147;DHT22;10234;50.856;15.716;2023-07-08T04:30:27;16.80;99.90
20147;DHT22;10234;50.856;15.716;2023-07-08T04:32:54;17.70;99.90
20147;DHT22;10234;50.856;15.716;2023-07-08T04:35:21;17.90;99.90
20147;DHT22;10234;50.856;15.716;2023-07-08T04:37:48;17.90;99.90
20147;DHT22;10234;50.856;15.716;2023-07-08T04:40:18;18.10;99.90
20147;DHT22;10234;50.856;15.716;2023-07-08T04:45:17;18.50;99.90
20147;DHT22;10234;50.856;15.716;2023-07-08T04:47:45;18.50;99.90
20147;DHT22;10234;50.856;15.716;2023-07-08T04:50:18;19.00;99.90
20147;DHT22;10234;50.856;15.716;2023-07-08T04:52:45;18.40;99.90
20147;DHT22;10234;50.856;15.716;2023-07-08T04:55:12;18.50;99.90
20147;DHT22;10234;50.856;15.716;2023-07-08T04:57:39;18.60;99.90
20147;DHT22;10234;50.856;15.716;2023-07-08T05:00:07;18.60;99.90
20147;DHT22;10234;50.856;15.716;2023-07-08T05:05:04;18.80;99.90
20147;DHT22;10234;50.856;15.716;2023-07-08T05:09:58;18.70;99.90
20147;DHT22;10234;50.856;15.716;2023-07-08T05:12:26;18.90;99.90
20147;DHT22;10234;50.856;15.716;2023-07-08T05:14:53;18.90;99.90
20147;DHT22;10234;50.856;15.716;2023-07-08T05:17:19;18.90;99.90
20147;DHT22;10234;50.856;15.716;2023-07-08T05:22:17;19.20;99.90
20147;DHT22;10234;50.856;15.716;2023-07-08T05:24:50;19.30;99.90
20147;DHT22;10234;50.856;15.716;2023-07-08T05:29:46;19.60;99.90
20147;DHT22;10234;50.856;15.716;2023-07-08T05:32:12;19.50;99.90
20147;DHT22;10234;50.856;15.716;2023-07-08T05:34:39;19.90;99.90
20147;DHT22;10234;50.856;15.716;2023-07-08T05:39:34;20.00;99.90
20147;DHT22;10234;50.856;15.716;2023-07-08T05:42:01;20.20;99.90
20147;DHT22;10234;50.856;15.716;2023-07-08T05:56:45;21.70;99.90
20147;DHT22;10234;50.856;15.716;2023-07-08T05:59:12;21.70;99.90
20147;DHT22;10234;50.856;15.716;2023-07-08T06:13:55;23.30;99.90
20147;DHT22;10234;50.856;15.716;2023-07-08T06:18:50;25.20;99.90
20147;DHT22;10234;50.856;15.716;2023-07-08T06:26:11;26.50;93.20
20147;DHT22;10234;50.856;15.716;2023-07-08T06:31:06;27.90;85.70
20147;DHT22;10234;50.856;15.716;2023-07-08T06:38:27;30.60;66.40
20147;DHT22;10234;50.856;15.716;2023-07-08T06:48:17;33.00;56.50
20147;DHT22;10234;50.856;15.716;2023-07-08T06:50:45;33.10;57.50
20147;DHT22;10234;50.856;15.716;2023-07-08T06:55:40;34.90;55.20
20147;DHT22;10234;50.856;15.716;2023-07-08T06:58:07;35.80;54.30
20147;DHT22;10234;50.856;15.716;2023-07-08T07:00:34;35.70;52.00
20147;DHT22;10234;50.856;15.716;2023-07-08T07:03:00;36.60;51.20
20147;DHT22;10234;50.856;15.716;2023-07-08T07:05:28;36.40;47.90
20147;DHT22;10234;50.856;15.716;2023-07-08T07:10:23;37.50;49.00
20147;DHT22;10234;50.856;15.716;2023-07-08T07:12:49;37.40;47.40
20147;DHT22;10234;50.856;15.716;2023-07-08T07:15:16;37.70;45.00
20147;DHT22;10234;50.856;15.716;2023-07-08T07:17:43;38.70;47.10
20147;DHT22;10234;50.856;15.716;2023-07-08T07:20:11;39.00;45.70
20147;DHT22;10234;50.856;15.716;2023-07-08T07:22:39;39.10;45.40
20147;DHT22;10234;50.856;15.716;2023-07-08T07:25:06;38.70;42.20
20147;DHT22;10234;50.856;15.716;2023-07-08T07:27:33;39.10;44.50
20147;DHT22;10234;50.856;15.716;2023-07-08T07:30:00;38.60;45.30
20147;DHT22;10234;50.856;15.716;2023-07-08T07:32:27;38.90;43.30
20147;DHT22;10234;50.856;15.716;2023-07-08T07:34:55;39.20;43.40
20147;DHT22;10234;50.856;15.716;2023-07-08T07:37:23;40.10;41.00
20147;DHT22;10234;50.856;15.716;2023-07-08T07:39:51;39.90;42.70
20147;DHT22;10234;50.856;15.716;2023-07-08T07:42:19;40.60;42.80
20147;DHT22;10234;50.856;15.716;2023-07-08T07:47:13;41.30;39.30
20147;DHT22;10234;50.856;15.716;2023-07-08T07:49:40;41.20;42.00
20147;DHT22;10234;50.856;15.716;2023-07-08T07:52:07;41.20;38.30
20147;DHT22;10234;50.856;15.716;2023-07-08T07:54:36;41.40;39.00
20147;DHT22;10234;50.856;15.716;2023-07-08T07:57:05;41.20;37.60
20147;DHT22;10234;50.856;15.716;2023-07-08T08:01:59;42.00;39.20
20147;DHT22;10234;50.856;15.716;2023-07-08T08:04:25;42.30;38.40
20147;DHT22;10234;50.856;15.716;2023-07-08T08:06:52;42.60;37.80
20147;DHT22;10234;50.856;15.716;2023-07-08T08:09:19;42.60;38.50
20147;DHT22;10234;50.856;15.716;2023-07-08T08:11:46;42.70;38.40
20147;DHT22;10234;50.856;15.716;2023-07-08T08:14:14;42.80;36.30
20147;DHT22;10234;50.856;15.716;2023-07-08T08:19:08;42.50;37.20
20147;DHT22;10234;50.856;15.716;2023-07-08T08:21:35;43.00;36.40
20147;DHT22;10234;50.856;15.716;2023-07-08T08:24:02;42.70;35.80
20147;DHT22;10234;50.856;15.716;2023-07-08T08:26:29;43.10;36.10
20147;DHT22;10234;50.856;15.716;2023-07-08T08:28:56;43.40;36.50
20147;DHT22;10234;50.856;15.716;2023-07-08T08:31:25;43.40;35.50
20147;DHT22;10234;50.856;15.716;2023-07-08T08:33:52;43.40;37.20
20147;DHT22;10234;50.856;15.716;2023-07-08T08:36:19;42.60;35.20
20147;DHT22;10234;50.856;15.716;2023-07-08T08:38:46;43.00;35.20
20147;DHT22;10234;50.856;15.716;2023-07-08T08:41:14;42.30;33.00
20147;DHT22;10234;50.856;15.716;2023-07-08T08:43:43;42.90;34.40
20147;DHT22;10234;50.856;15.716;2023-07-08T08:46:16;43.40;35.20
20147;DHT22;10234;50.856;15.716;2023-07-08T08:48:53;43.40;34.50
20147;DHT22;10234;50.856;15.716;2023-07-08T08:51:23;43.10;35.20
20147;DHT22;10234;50.856;15.716;2023-07-08T08:53:53;43.00;35.00
20147;DHT22;10234;50.856;15.716;2023-07-08T08:56:27;42.60;34.80
20147;DHT22;10234;50.856;15.716;2023-07-08T08:58:58;42.40;33.20
20147;DHT22;10234;50.856;15.716;2023-07-08T09:01:29;41.70;34.50
20147;DHT22;10234;50.856;15.716;2023-07-08T09:04:02;42.10;34.90
20147;DHT22;10234;50.856;15.716;2023-07-08T09:06:31;42.50;33.10
20147;DHT22;10234;50.856;15.716;2023-07-08T09:09:02;42.90;33.30
20147;DHT22;10234;50.856;15.716;2023-07-08T09:11:42;42.90;31.50
20147;DHT22;10234;50.856;15.716;2023-07-08T09:14:16;43.30;32.20
20147;DHT22;10234;50.856;15.716;2023-07-08T09:16:51;43.90;32.60
20147;DHT22;10234;50.856;15.716;2023-07-08T09:19:25;44.30;31.50
20147;DHT22;10234;50.856;15.716;2023-07-08T09:21:58;44.00;31.20
20147;DHT22;10234;50.856;15.716;2023-07-08T09:24:31;43.90;31.60
20147;DHT22;10234;50.856;15.716;2023-07-08T09:27:00;43.70;32.70
20147;DHT22;10234;50.856;15.716;2023-07-08T09:34:36;43.40;34.40
20147;DHT22;10234;50.856;15.716;2023-07-08T09:37:21;43.40;31.60
20147;DHT22;10234;50.856;15.716;2023-07-08T09:39:48;44.40;32.80
20147;DHT22;10234;50.856;15.716;2023-07-08T09:42:15;43.30;33.90
20147;DHT22;10234;50.856;15.716;2023-07-08T09:44:44;43.10;31.30
20147;DHT22;10234;50.856;15.716;2023-07-08T09:47:20;42.90;31.40
20147;DHT22;10234;50.856;15.716;2023-07-08T09:49:49;41.70;35.20
20147;DHT22;10234;50.856;15.716;2023-07-08T09:52:18;43.20;33.70
20147;DHT22;10234;50.856;15.716;2023-07-08T09:54:45;42.10;34.40
20147;DHT22;10234;50.856;15.716;2023-07-08T09:57:25;42.00;31.60
20147;DHT22;10234;50.856;15.716;2023-07-08T09:59:56;40.20;34.00
20147;DHT22;10234;50.856;15.716;2023-07-08T10:02:30;39.70;35.20
20147;DHT22;10234;50.856;15.716;2023-07-08T10:05:00;37.90;39.30
20147;DHT22;10234;50.856;15.716;2023-07-08T10:07:29;36.40;43.00
20147;DHT22;10234;50.856;15.716;2023-07-08T10:09:59;36.50;41.40
20147;DHT22;10234;50.856;15.716;2023-07-08T10:12:28;36.40;40.60
20147;DHT22;10234;50.856;15.716;2023-07-08T10:14:59;36.90;42.90
20147;DHT22;10234;50.856;15.716;2023-07-08T10:19:57;36.10;44.00
20147;DHT22;10234;50.856;15.716;2023-07-08T10:22:38;35.10;44.60
20147;DHT22;10234;50.856;15.716;2023-07-08T10:25:14;34.30;44.60
20147;DHT22;10234;50.856;15.716;2023-07-08T10:27:49;33.70;39.80
20147;DHT22;10234;50.856;15.716;2023-07-08T10:30:24;32.60;39.80
20147;DHT22;10234;50.856;15.716;2023-07-08T10:33:13;31.70;41.90
20147;DHT22;10234;50.856;15.716;2023-07-08T10:35:51;31.00;42.50
20147;DHT22;10234;50.856;15.716;2023-07-08T10:38:35;30.50;45.20
20147;DHT22;10234;50.856;15.716;2023-07-08T10:41:09;30.20;44.30
20147;DHT22;10234;50.856;15.716;2023-07-08T10:43:44;30.50;52.20
20147;DHT22;10234;50.856;15.716;2023-07-08T10:46:22;30.50;55.00
20147;DHT22;10234;50.856;15.716;2023-07-08T10:49:21;31.20;50.90
20147;DHT22;10234;50.856;15.716;2023-07-08T10:52:10;31.90;56.50
20147;DHT22;10234;50.856;15.716;2023-07-08T10:54:56;31.10;57.10
20147;DHT22;10234;50.856;15.716;2023-07-08T10:57:56;32.10;57.80
20147;DHT22;10234;50.856;15.716;2023-07-08T11:00:30;32.90;55.00
20147;DHT22;10234;50.856;15.716;2023-07-08T11:03:31;32.50;53.60
20147;DHT22;10234;50.856;15.716;2023-07-08T11:06:06;32.70;53.20
20147;DHT22;10234;50.856;15.716;2023-07-08T11:08:40;33.70;52.70
20147;DHT22;10234;50.856;15.716;2023-07-08T11:11:15;35.70;52.40
20147;DHT22;10234;50.856;15.716;2023-07-08T11:13:48;37.20;47.00
20147;DHT22;10234;50.856;15.716;2023-07-08T11:16:21;38.70;47.20
20147;DHT22;10234;50.856;15.716;2023-07-08T11:18:53;39.50;44.70
20147;DHT22;10234;50.856;15.716;2023-07-08T11:21:24;39.10;46.70
20147;DHT22;10234;50.856;15.716;2023-07-08T11:23:59;39.40;37.50
20147;DHT22;10234;50.856;15.716;2023-07-08T11:26:29;37.40;37.60
20147;DHT22;10234;50.856;15.716;2023-07-08T11:28:58;40.50;43.20
20147;DHT22;10234;50.856;15.716;2023-07-08T11:31:27;39.80;41.30
20147;DHT22;10234;50.856;15.716;2023-07-08T11:33:55;39.60;43.10
20147;DHT22;10234;50.856;15.716;2023-07-08T11:36:24;39.60;42.80
20147;DHT22;10234;50.856;15.716;2023-07-08T11:38:55;39.90;41.60
20147;DHT22;10234;50.856;15.716;2023-07-08T11:41:24;40.00;37.50
20147;DHT22;10234;50.856;15.716;2023-07-08T11:43:57;40.40;36.10
20147;DHT22;10234;50.856;15.716;2023-07-08T11:46:28;40.00;36.70
20147;DHT22;10234;50.856;15.716;2023-07-08T11:49:01;38.80;42.70
20147;DHT22;10234;50.856;15.716;2023-07-08T11:51:32;37.60;45.40
20147;DHT22;10234;50.856;15.716;2023-07-08T11:54:20;36.80;46.40
20147;DHT22;10234;50.856;15.716;2023-07-08T11:56:59;36.00;48.60
20147;DHT22;10234;50.856;15.716;2023-07-08T11:59:30;34.60;48.70
20147;DHT22;10234;50.856;15.716;2023-07-08T12:02:02;33.90;49.40
20147;DHT22;10234;50.856;15.716;2023-07-08T12:04:31;34.00;42.30
20147;DHT22;10234;50.856;15.716;2023-07-08T12:07:16;33.60;51.20
20147;DHT22;10234;50.856;15.716;2023-07-08T12:09:49;33.50;50.90
20147;DHT22;10234;50.856;15.716;2023-07-08T12:12:25;32.50;50.40
20147;DHT22;10234;50.856;15.716;2023-07-08T12:15:00;31.90;41.70
20147;DHT22;10234;50.856;15.716;2023-07-08T12:17:28;30.80;52.60
20147;DHT22;10234;50.856;15.716;2023-07-08T12:19:58;30.90;43.50
20147;DHT22;10234;50.856;15.716;2023-07-08T12:24:55;30.40;48.40
20147;DHT22;10234;50.856;15.716;2023-07-08T12:32:18;30.10;55.50
20147;DHT22;10234;50.856;15.716;2023-07-08T12:37:16;29.60;46.00
20147;DHT22;10234;50.856;15.716;2023-07-08T12:42:11;29.20;46.40
20147;DHT22;10234;50.856;15.716;2023-07-08T12:44:40;29.40;57.30
20147;DHT22;10234;50.856;15.716;2023-07-08T12:47:09;29.30;52.80
20147;DHT22;10234;50.856;15.716;2023-07-08T12:59:27;29.80;47.60
20147;DHT22;10234;50.856;15.716;2023-07-08T13:09:31;30.00;47.40
20147;DHT22;10234;50.856;15.716;2023-07-08T13:12:03;29.90;47.40
20147;DHT22;10234;50.856;15.716;2023-07-08T13:14:32;30.00;48.60
20147;DHT22;10234;50.856;15.716;2023-07-08T13:19:27;29.90;49.50
20147;DHT22;10234;50.856;15.716;2023-07-08T13:21:54;29.70;46.10
20147;DHT22;10234;50.856;15.716;2023-07-08T13:24:21;29.40;55.30
20147;DHT22;10234;50.856;15.716;2023-07-08T13:26:49;26.60;44.90
20147;DHT22;10234;50.856;15.716;2023-07-08T13:29:18;29.50;47.00
20147;DHT22;10234;50.856;15.716;2023-07-08T13:31:56;29.40;45.70
20147;DHT22;10234;50.856;15.716;2023-07-08T13:34:28;29.80;55.20
20147;DHT22;10234;50.856;15.716;2023-07-08T13:39:24;29.20;45.60
20147;DHT22;10234;50.856;15.716;2023-07-08T13:46:53;28.90;52.30
20147;DHT22;10234;50.856;15.716;2023-07-08T13:49:24;29.20;48.60
20147;DHT22;10234;50.856;15.716;2023-07-08T13:52:05;29.20;47.50
20147;DHT22;10234;50.856;15.716;2023-07-08T13:54:34;29.20;48.00
20147;DHT22;10234;50.856;15.716;2023-07-08T13:57:09;29.50;53.90
20147;DHT22;10234;50.856;15.716;2023-07-08T14:02:14;29.30;49.30
20147;DHT22;10234;50.856;15.716;2023-07-08T14:07:13;29.20;49.20
20147;DHT22;10234;50.856;15.716;2023-07-08T14:17:08;28.90;56.80
20147;DHT22;10234;50.856;15.716;2023-07-08T14:19:37;29.60;57.80
20147;DHT22;10234;50.856;15.716;2023-07-08T14:22:19;29.00;57.50
20147;DHT22;10234;50.856;15.716;2023-07-08T14:33:07;28.50;48.40
20147;DHT22;10234;50.856;15.716;2023-07-08T14:38:02;28.70;58.90
20147;DHT22;10234;50.856;15.716;2023-07-08T14:40:35;28.20;49.50
20147;DHT22;10234;50.856;15.716;2023-07-08T14:43:07;27.80;58.70
20147;DHT22;10234;50.856;15.716;2023-07-08T14:45:41;28.20;48.80
20147;DHT22;10234;50.856;15.716;2023-07-08T14:50:39;28.20;54.00
20147;DHT22;10234;50.856;15.716;2023-07-08T14:53:07;27.30;51.10
20147;DHT22;10234;50.856;15.716;2023-07-08T14:55:34;28.00;50.60
20147;DHT22;10234;50.856;15.716;2023-07-08T14:58:03;28.00;50.00
20147;DHT22;10234;50.856;15.716;2023-07-08T15:00:30;27.60;53.90
20147;DHT22;10234;50.856;15.716;2023-07-08T15:05:27;27.80;50.40
20147;DHT22;10234;50.856;15.716;2023-07-08T15:07:56;27.70;51.30
20147;DHT22;10234;50.856;15.716;2023-07-08T15:10:25;27.60;49.60
20147;DHT22;10234;50.856;15.716;2023-07-08T15:15:23;28.00;60.50
20147;DHT22;10234;50.856;15.716;2023-07-08T15:22:48;27.70;51.60
20147;DHT22;10234;50.856;15.716;2023-07-08T15:25:16;27.70;50.80
20147;DHT22;10234;50.856;15.716;2023-07-08T15:27:45;27.70;49.70
20147;DHT22;10234;50.856;15.716;2023-07-08T15:30:19;27.70;50.10
20147;DHT22;10234;50.856;15.716;2023-07-08T15:32:47;27.50;60.10
20147;DHT22;10234;50.856;15.716;2023-07-08T15:35:16;27.70;50.00
20147;DHT22;10234;50.856;15.716;2023-07-08T15:37:44;27.70;52.10
20147;DHT22;10234;50.856;15.716;2023-07-08T15:40:15;27.50;60.00
20147;DHT22;10234;50.856;15.716;2023-07-08T15:42:44;27.10;60.20
20147;DHT22;10234;50.856;15.716;2023-07-08T15:45:17;27.50;49.00
20147;DHT22;10234;50.856;15.716;2023-07-08T15:50:15;27.20;50.10
20147;DHT22;10234;50.856;15.716;2023-07-08T15:52:43;27.30;59.20
20147;DHT22;10234;50.856;15.716;2023-07-08T15:55:12;27.10;49.60
20147;DHT22;10234;50.856;15.716;2023-07-08T15:57:44;27.00;50.20
20147;DHT22;10234;50.856;15.716;2023-07-08T16:00:17;27.00;49.60
20147;DHT22;10234;50.856;15.716;2023-07-08T16:02:48;26.90;49.70
20147;DHT22;10234;50.856;15.716;2023-07-08T16:05:17;26.90;50.30
20147;DHT22;10234;50.856;15.716;2023-07-08T16:07:44;26.20;50.80
20147;DHT22;10234;50.856;15.716;2023-07-08T16:12:39;26.70;51.10
20147;DHT22;10234;50.856;15.716;2023-07-08T16:15:13;26.60;51.20
20147;DHT22;10234;50.856;15.716;2023-07-08T16:20:19;26.40;53.00
20147;DHT22;10234;50.856;15.716;2023-07-08T16:25:14;26.80;53.80
20147;DHT22;10234;50.856;15.716;2023-07-08T16:27:42;26.30;52.10
20147;DHT22;10234;50.856;15.716;2023-07-08T16:30:15;26.50;58.20
20147;DHT22;10234;50.856;15.716;2023-07-08T16:32:43;26.20;61.70
20147;DHT22;10234;50.856;15.716;2023-07-08T16:35:12;26.20;51.40
20147;DHT22;10234;50.856;15.716;2023-07-08T16:40:14;26.10;63.50
20147;DHT22;10234;50.856;15.716;2023-07-08T16:42:43;26.10;53.40
20147;DHT22;10234;50.856;15.716;2023-07-08T16:45:17;26.10;53.10
20147;DHT22;10234;50.856;15.716;2023-07-08T16:47:45;25.60;55.50
20147;DHT22;10234;50.856;15.716;2023-07-08T16:50:13;25.80;63.00
20147;DHT22;10234;50.856;15.716;2023-07-08T16:52:41;26.00;52.20
20147;DHT22;10234;50.856;15.716;2023-07-08T16:55:10;26.00;52.20
20147;DHT22;10234;50.856;15.716;2023-07-08T17:00:07;26.00;63.10
20147;DHT22;10234;50.856;15.716;2023-07-08T17:05:16;26.00;53.20
20147;DHT22;10234;50.856;15.716;2023-07-08T17:10:11;26.00;64.40
20147;DHT22;10234;50.856;15.716;2023-07-08T17:15:07;25.80;58.80
20147;DHT22;10234;50.856;15.716;2023-07-08T17:17:37;25.90;63.20
20147;DHT22;10234;50.856;15.716;2023-07-08T17:20:15;25.60;55.60
20147;DHT22;10234;50.856;15.716;2023-07-08T17:25:16;25.80;57.50
20147;DHT22;10234;50.856;15.716;2023-07-08T17:27:43;24.90;58.10
20147;DHT22;10234;50.856;15.716;2023-07-08T17:30:12;25.10;56.80
20147;DHT22;10234;50.856;15.716;2023-07-08T17:32:43;25.00;57.20
20147;DHT22;10234;50.856;15.716;2023-07-08T17:35:12;24.90;57.60
20147;DHT22;10234;50.856;15.716;2023-07-08T17:40:14;24.90;71.30
20147;DHT22;10234;50.856;15.716;2023-07-08T17:42:41;24.50;65.90
20147;DHT22;10234;50.856;15.716;2023-07-08T17:45:10;24.60;60.60
20147;DHT22;10234;50.856;15.716;2023-07-08T17:47:38;24.50;61.20
20147;DHT22;10234;50.856;15.716;2023-07-08T17:50:18;24.50;69.40
20147;DHT22;10234;50.856;15.716;2023-07-08T17:57:42;24.10;69.10
20147;DHT22;10234;50.856;15.716;2023-07-08T18:00:13;24.00;69.90
20147;DHT22;10234;50.856;15.716;2023-07-08T18:05:16;23.60;84.20
20147;DHT22;10234;50.856;15.716;2023-07-08T18:07:45;23.40;84.00
20147;DHT22;10234;50.856;15.716;2023-07-08T18:10:12;23.70;79.50
20147;DHT22;10234;50.856;15.716;2023-07-08T18:12:40;23.40;75.10
20147;DHT22;10234;50.856;15.716;2023-07-08T18:15:27;23.30;75.60
20147;DHT22;10234;50.856;15.716;2023-07-08T18:17:56;23.20;77.20
20147;DHT22;10234;50.856;15.716;2023-07-08T18:20:28;23.10;80.20
20147;DHT22;10234;50.856;15.716;2023-07-08T18:22:57;22.90;84.70
20147;DHT22;10234;50.856;15.716;2023-07-08T18:25:25;22.70;92.00
20147;DHT22;10234;50.856;15.716;2023-07-08T18:30:21;22.50;95.90
20147;DHT22;10234;50.856;15.716;2023-07-08T18:32:49;22.10;99.90
20147;DHT22;10234;50.856;15.716;2023-07-08T18:35:19;23.40;99.90
20147;DHT22;10234;50.856;15.716;2023-07-08T18:37:48;22.10;99.90
20147;DHT22;10234;50.856;15.716;2023-07-08T18:40:18;21.90;99.90
20147;DHT22;10234;50.856;15.716;2023-07-08T18:42:50;21.80;99.90
20147;DHT22;10234;50.856;15.716;2023-07-08T18:45:20;21.70;99.90
20147;DHT22;10234;50.856;15.716;2023-07-08T18:47:47;22.00;99.90
20147;DHT22;10234;50.856;15.716;2023-07-08T18:50:15;21.50;99.90
20147;DHT22;10234;50.856;15.716;2023-07-08T18:55:15;21.20;99.90
20147;DHT22;10234;50.856;15.716;2023-07-08T19:00:12;20.90;99.90
20147;DHT22;10234;50.856;15.716;2023-07-08T19:02:46;21.00;99.90
20147;DHT22;10234;50.856;15.716;2023-07-08T19:05:16;20.90;99.90
20147;DHT22;10234;50.856;15.716;2023-07-08T19:07:43;20.80;99.90
20147;DHT22;10234;50.856;15.716;2023-07-08T19:10:12;20.70;99.90
20147;DHT22;10234;50.856;15.716;2023-07-08T19:12:43;20.70;99.90
20147;DHT22;10234;50.856;15.716;2023-07-08T19:15:17;20.50;99.90
20147;DHT22;10234;50.856;15.716;2023-07-08T19:17:45;20.30;99.90
20147;DHT22;10234;50.856;15.716;2023-07-08T19:20:15;20.30;99.90
20147;DHT22;10234;50.856;15.716;2023-07-08T19:22:45;20.00;99.90
20147;DHT22;10234;50.856;15.716;2023-07-08T19:25:18;20.00;99.90
20147;DHT22;10234;50.856;15.716;2023-07-08T19:30:15;22.40;99.90
20147;DHT22;10234;50.856;15.716;2023-07-08T19:32:44;19.80;99.90
20147;DHT22;10234;50.856;15.716;2023-07-08T19:35:16;19.90;99.90
20147;DHT22;10234;50.856;15.716;2023-07-08T19:37:43;19.70;99.90
20147;DHT22;10234;50.856;15.716;2023-07-08T19:40:12;19.80;99.90
20147;DHT22;10234;50.856;15.716;2023-07-08T19:42:40;19.50;99.90
20147;DHT22;10234;50.856;15.716;2023-07-08T19:45:21;19.50;99.90
20147;DHT22;10234;50.856;15.716;2023-07-08T19:50:16;19.40;99.90
20147;DHT22;10234;50.856;15.716;2023-07-08T19:57:43;19.40;99.90
20147;DHT22;10234;50.856;15.716;2023-07-08T20:00:31;19.20;99.90
20147;DHT22;10234;50.856;15.716;2023-07-08T20:03:02;19.10;99.90